createdAt,value
2019-01-23T00:00:55.182Z,61.50
2019-01-23T00:03:27.860Z,77.67
2019-01-23T00:06:00.387Z,79.43
2019-01-23T00:08:32.752Z,77.30
2019-01-23T00:11:05.505Z,67.03
2019-01-23T00:13:38.377Z,82.43
2019-01-23T00:16:10.848Z,84.50
2019-01-23T00:18:43.382Z,85.73
2019-01-23T00:21:15.877Z,79.47
2019-01-23T00:23:48.261Z,94.67
2019-01-23T00:26:20.862Z,86.23
2019-01-23T00:28:53.651Z,87.47
2019-01-23T00:31:26.173Z,77.37
2019-01-23T00:33:58.695Z,70.83
2019-01-23T00:36:31.140Z,64.80
2019-01-23T00:39:04.739Z,67.50
2019-01-23T00:41:37.125Z,57.80
2019-01-23T00:44:09.655Z,65.13
2019-01-23T00:46:42.216Z,62.17
2019-01-23T00:49:14.618Z,58.03
2019-01-23T00:51:47.182Z,64.40
2019-01-23T00:54:19.854Z,65.30
2019-01-23T00:56:52.405Z,73.30
2019-01-23T00:59:24.955Z,72.13
2019-01-23T01:01:57.597Z,73.63
2019-01-23T01:04:29.975Z,72.00
2019-01-23T01:07:02.446Z,63.43
2019-01-23T01:09:35.087Z,67.30
2019-01-23T01:12:07.796Z,64.93
2019-01-23T01:14:41.265Z,64.20
2019-01-23T01:17:13.513Z,65.77
2019-01-23T01:19:46.014Z,67.80
2019-01-23T01:22:19.904Z,65.30
2019-01-23T01:24:52.720Z,63.17
2019-01-23T01:27:25.349Z,71.23
2019-01-23T01:29:58.050Z,64.67
2019-01-23T01:32:30.681Z,61.37
2019-01-23T01:35:03.173Z,67.90
2019-01-23T01:37:35.700Z,71.07
2019-01-23T01:40:12.562Z,61.40
2019-01-23T01:42:45.341Z,59.40
2019-01-23T01:45:19.233Z,57.33
2019-01-23T01:47:51.646Z,63.00
2019-01-23T01:50:24.500Z,62.37
2019-01-23T01:52:57.234Z,67.03
2019-01-23T01:55:29.866Z,65.00
2019-01-23T01:58:03.736Z,66.13
2019-01-23T02:00:36.866Z,66.63
2019-01-23T02:03:09.489Z,72.77
2019-01-23T02:05:42.011Z,70.07
2019-01-23T02:08:14.468Z,65.83
2019-01-23T02:10:46.935Z,70.03
2019-01-23T02:13:19.342Z,71.90
2019-01-23T02:15:51.922Z,62.87
2019-01-23T02:18:24.495Z,64.73
2019-01-23T02:20:57.276Z,67.50
2019-01-23T02:23:29.700Z,65.23
2019-01-23T02:26:02.461Z,61.83
2019-01-23T02:28:35.127Z,68.17
2019-01-23T02:31:07.551Z,75.60
2019-01-23T02:33:40.054Z,72.03
2019-01-23T02:36:14.286Z,75.50
2019-01-23T02:38:46.861Z,76.10
2019-01-23T02:41:19.444Z,71.47
2019-01-23T02:43:51.975Z,68.77
2019-01-23T02:46:25.022Z,69.90
2019-01-23T02:48:57.335Z,70.33
2019-01-23T02:51:29.709Z,67.50
2019-01-23T02:54:02.419Z,67.53
2019-01-23T02:56:34.997Z,71.10
2019-01-23T02:59:07.612Z,75.83
2019-01-23T03:01:41.508Z,78.07
2019-01-23T03:04:14.450Z,70.30
2019-01-23T03:06:46.823Z,71.60
2019-01-23T03:09:19.365Z,73.97
2019-01-23T03:11:51.714Z,75.90
2019-01-23T03:14:24.075Z,71.40
2019-01-23T03:16:56.465Z,71.90
2019-01-23T03:19:29.130Z,65.10
2019-01-23T03:22:01.876Z,70.67
2019-01-23T03:24:34.432Z,63.70
2019-01-23T03:27:07.306Z,60.03
2019-01-23T03:29:39.850Z,64.77
2019-01-23T03:32:12.334Z,67.07
2019-01-23T03:34:44.726Z,62.87
2019-01-23T03:37:17.128Z,63.23
2019-01-23T03:39:49.821Z,65.37
2019-01-23T03:42:22.335Z,60.80
2019-01-23T03:44:54.891Z,69.77
2019-01-23T03:47:27.457Z,57.57
2019-01-23T03:50:00.225Z,59.07
2019-01-23T03:52:32.811Z,75.67
2019-01-23T03:55:05.708Z,66.40
2019-01-23T03:57:38.420Z,65.83
2019-01-23T04:00:15.255Z,68.90
2019-01-23T04:02:48.428Z,68.70
2019-01-23T04:05:21.080Z,62.03
2019-01-23T04:07:53.884Z,67.93
2019-01-23T04:10:26.218Z,72.40
2019-01-23T04:12:58.663Z,67.93
2019-01-23T04:15:31.242Z,63.23
2019-01-23T04:18:05.565Z,66.07
2019-01-23T04:20:37.890Z,62.80
2019-01-23T04:23:10.473Z,64.07
2019-01-23T04:25:46.266Z,65.67
2019-01-23T04:28:18.628Z,63.40
2019-01-23T04:30:52.065Z,67.33
2019-01-23T04:33:24.666Z,73.70
2019-01-23T04:35:57.119Z,66.83
2019-01-23T04:38:29.477Z,59.60
2019-01-23T04:41:01.997Z,69.47
2019-01-23T04:43:34.648Z,70.03
2019-01-23T04:46:07.290Z,74.90
2019-01-23T04:48:39.947Z,69.33
2019-01-23T04:51:40.044Z,67.50
2019-01-23T04:54:15.682Z,71.57
2019-01-23T04:56:48.271Z,74.60
2019-01-23T04:59:20.711Z,68.97
2019-01-23T05:01:53.502Z,75.40
2019-01-23T05:04:26.127Z,72.40
2019-01-23T05:06:58.475Z,66.83
2019-01-23T05:09:30.971Z,77.03
2019-01-23T05:12:03.567Z,68.10
2019-01-23T05:14:36.359Z,69.37
2019-01-23T05:17:08.685Z,72.50
2019-01-23T05:19:41.401Z,76.63
2019-01-23T05:22:14.245Z,77.10
2019-01-23T05:24:46.873Z,72.33
2019-01-23T05:27:19.473Z,66.67
2019-01-23T05:29:55.085Z,72.47
2019-01-23T05:32:26.760Z,65.80
2019-01-23T05:34:59.143Z,74.83
2019-01-23T05:37:31.681Z,71.80
2019-01-23T05:40:03.976Z,68.43
2019-01-23T05:42:36.956Z,68.37
2019-01-23T05:45:10.684Z,83.87
2019-01-23T05:47:43.262Z,73.37
2019-01-23T05:50:17.169Z,74.17
2019-01-23T05:52:49.957Z,71.90
2019-01-23T05:55:22.506Z,75.83
2019-01-23T05:57:55.112Z,73.20
2019-01-23T06:00:28.377Z,70.47
2019-01-23T06:03:01.186Z,83.03
2019-01-23T06:05:33.892Z,84.30
2019-01-23T06:08:06.729Z,74.37
2019-01-23T06:10:39.142Z,74.13
2019-01-23T06:13:11.806Z,60.57
2019-01-23T06:15:44.284Z,62.37
2019-01-23T06:18:16.959Z,58.57
2019-01-23T06:20:49.498Z,63.87
2019-01-23T06:23:22.022Z,65.27
2019-01-23T06:25:54.517Z,64.60
2019-01-23T06:28:26.887Z,61.50
2019-01-23T06:30:59.545Z,62.53
2019-01-23T06:33:31.952Z,67.07
2019-01-23T06:36:04.998Z,67.30
2019-01-23T06:38:37.481Z,64.70
2019-01-23T06:41:10.172Z,62.63
2019-01-23T06:43:42.807Z,60.73
2019-01-23T06:46:16.101Z,55.47
2019-01-23T06:48:48.688Z,59.97
2019-01-23T06:51:21.136Z,62.37
2019-01-23T06:53:53.516Z,65.17
2019-01-23T06:56:25.890Z,60.67
2019-01-23T06:58:58.335Z,61.03
2019-01-23T07:01:31.087Z,67.40
2019-01-23T07:04:03.558Z,61.40
2019-01-23T07:06:35.996Z,58.87
2019-01-23T07:09:10.958Z,66.17
2019-01-23T07:11:43.543Z,66.07
2019-01-23T07:14:15.952Z,55.77
2019-01-23T07:16:48.529Z,61.67
2019-01-23T07:19:21.290Z,52.13
2019-01-23T07:21:53.942Z,179.20
2019-01-23T07:24:26.245Z,162.43
2019-01-23T07:26:58.639Z,76.57
2019-01-23T07:29:31.178Z,73.93
2019-01-23T07:32:03.782Z,57.20
2019-01-23T07:34:36.255Z,58.63
2019-01-23T07:37:08.750Z,67.13
2019-01-23T07:39:41.344Z,59.87
2019-01-23T07:42:13.761Z,56.73
2019-01-23T07:44:46.465Z,56.40
2019-01-23T07:47:18.959Z,52.97
2019-01-23T07:49:51.432Z,49.10
2019-01-23T07:52:24.061Z,52.70
2019-01-23T07:54:56.616Z,53.67
2019-01-23T07:57:29.073Z,54.07
2019-01-23T08:00:01.625Z,54.87
2019-01-23T08:02:34.122Z,55.37
2019-01-23T08:05:08.316Z,54.40
2019-01-23T08:07:42.251Z,52.40
2019-01-23T08:10:16.645Z,50.23
2019-01-23T08:12:49.213Z,51.63
2019-01-23T08:15:24.884Z,52.23
2019-01-23T08:17:57.995Z,53.80
2019-01-23T08:20:30.985Z,54.13
2019-01-23T08:23:03.345Z,55.60
2019-01-23T08:25:36.012Z,53.53
2019-01-23T08:28:08.750Z,53.53
2019-01-23T08:30:41.153Z,55.67
2019-01-23T08:33:13.520Z,52.63
2019-01-23T08:35:46.055Z,57.33
2019-01-23T08:38:18.538Z,63.57
2019-01-23T08:40:51.166Z,55.00
2019-01-23T08:43:23.589Z,49.67
2019-01-23T08:45:55.975Z,58.43
2019-01-23T08:48:28.676Z,55.13
2019-01-23T08:51:01.383Z,47.37
2019-01-23T08:53:34.771Z,45.03
2019-01-23T08:56:07.665Z,48.20
2019-01-23T08:58:40.424Z,46.70
2019-01-23T09:01:13.025Z,44.23
2019-01-23T09:03:45.409Z,44.63
2019-01-23T09:06:18.038Z,43.90
2019-01-23T09:08:50.342Z,56.30
2019-01-23T09:11:23.305Z,43.43
2019-01-23T09:13:55.886Z,44.93
2019-01-23T09:16:28.348Z,46.87
2019-01-23T09:19:00.779Z,54.30
2019-01-23T09:21:33.242Z,48.60
2019-01-23T09:24:06.029Z,50.53
2019-01-23T09:26:38.426Z,43.23
2019-01-23T09:29:10.790Z,48.17
2019-01-23T09:32:26.795Z,46.83
2019-01-23T09:35:35.699Z,50.90
2019-01-23T09:39:07.975Z,46.30
2019-01-23T09:42:18.808Z,46.17
2019-01-23T09:45:33.590Z,50.90
2019-01-23T09:48:27.466Z,45.83
2019-01-23T09:51:39.719Z,46.50
2019-01-23T09:54:17.345Z,52.40
2019-01-23T09:56:51.020Z,43.17
2019-01-23T09:59:23.656Z,48.77
2019-01-23T10:01:56.269Z,52.37
2019-01-23T10:04:29.432Z,50.03
2019-01-23T10:07:02.319Z,53.60
2019-01-23T10:09:34.916Z,51.57
2019-01-23T10:12:07.770Z,52.10
2019-01-23T10:14:40.265Z,48.30
2019-01-23T10:17:12.690Z,58.73
2019-01-23T10:19:44.996Z,54.40
2019-01-23T10:22:17.443Z,64.90
2019-01-23T10:24:49.977Z,45.87
2019-01-23T10:27:22.459Z,57.60
2019-01-23T10:29:54.818Z,51.27
2019-01-23T10:32:27.504Z,54.30
2019-01-23T10:35:00.250Z,48.80
2019-01-23T10:37:32.613Z,50.00
2019-01-23T10:40:05.446Z,52.10
2019-01-23T10:42:37.968Z,51.07
2019-01-23T10:45:11.440Z,40.23
2019-01-23T10:47:44.471Z,41.53
2019-01-23T10:50:17.567Z,44.83
2019-01-23T10:52:50.018Z,40.63
2019-01-23T10:55:22.448Z,45.43
2019-01-23T10:57:54.820Z,53.03
2019-01-23T11:00:27.367Z,42.97
2019-01-23T11:03:00.092Z,41.93
2019-01-23T11:05:32.657Z,39.50
2019-01-23T11:08:05.179Z,47.03
2019-01-23T11:10:37.864Z,42.60
2019-01-23T11:13:10.542Z,39.13
2019-01-23T11:15:43.037Z,44.40
2019-01-23T11:18:15.682Z,46.53
2019-01-23T11:20:48.199Z,43.63
2019-01-23T11:23:21.193Z,39.43
2019-01-23T11:25:53.737Z,38.77
2019-01-23T11:28:26.055Z,37.67
2019-01-23T11:30:58.577Z,44.07
2019-01-23T11:33:31.395Z,39.80
2019-01-23T11:36:03.827Z,34.23
2019-01-23T11:38:36.210Z,35.83
2019-01-23T11:41:08.921Z,30.40
2019-01-23T11:43:41.364Z,36.17
2019-01-23T11:46:13.665Z,36.20
2019-01-23T11:48:46.244Z,35.70
2019-01-23T11:51:18.663Z,35.90
2019-01-23T11:53:51.159Z,39.77
2019-01-23T11:56:24.214Z,31.20
2019-01-23T11:58:56.764Z,33.87
2019-01-23T12:01:29.396Z,27.97
2019-01-23T12:04:01.975Z,28.37
2019-01-23T12:06:34.912Z,29.43
2019-01-23T12:09:10.927Z,31.73
2019-01-23T12:11:43.597Z,21.43
2019-01-23T12:14:16.272Z,27.43
2019-01-23T12:16:48.957Z,26.73
2019-01-23T12:19:21.556Z,26.30
2019-01-23T12:21:54.823Z,31.80
2019-01-23T12:24:28.149Z,24.80
2019-01-23T12:27:00.670Z,29.27
2019-01-23T12:29:33.436Z,28.17
2019-01-23T12:32:06.388Z,25.87
2019-01-23T12:34:38.945Z,25.27
2019-01-23T12:37:11.287Z,29.17
2019-01-23T12:39:45.376Z,26.53
2019-01-23T12:42:18.054Z,27.80
2019-01-23T12:44:52.119Z,28.87
2019-01-23T12:47:24.622Z,26.43
2019-01-23T12:49:57.187Z,28.83
2019-01-23T12:52:29.911Z,32.00
2019-01-23T12:55:02.402Z,25.97
2019-01-23T12:57:34.717Z,30.33
2019-01-23T13:00:10.864Z,28.53
2019-01-23T13:02:43.228Z,29.87
2019-01-23T13:05:18.599Z,26.70
2019-01-23T13:07:51.399Z,30.13
2019-01-23T13:10:24.849Z,28.27
2019-01-23T13:12:57.862Z,25.40
2019-01-23T13:15:30.893Z,23.60
2019-01-23T13:18:03.307Z,27.27
2019-01-23T13:20:35.696Z,28.80
2019-01-23T13:23:08.111Z,30.17
2019-01-23T13:25:40.722Z,31.20
2019-01-23T13:28:13.471Z,28.80
2019-01-23T13:31:04.406Z,27.90
2019-01-23T13:33:37.061Z,30.37
2019-01-23T13:36:10.844Z,28.40
2019-01-23T13:38:43.426Z,33.90
2019-01-23T13:41:16.116Z,28.50
2019-01-23T13:43:48.494Z,26.50
2019-01-23T13:46:22.868Z,27.17
2019-01-23T13:48:55.782Z,29.07
2019-01-23T13:51:28.477Z,22.23
2019-01-23T13:54:01.089Z,26.77
2019-01-23T13:56:52.333Z,27.57
2019-01-23T13:59:24.718Z,26.77
2019-01-23T14:01:57.373Z,23.23
2019-01-23T14:04:29.734Z,22.33
2019-01-23T14:07:02.213Z,24.53
2019-01-23T14:09:34.508Z,24.87
2019-01-23T14:12:06.876Z,24.73
2019-01-23T14:14:40.039Z,24.80
2019-01-23T14:17:12.422Z,26.43
2019-01-23T14:19:45.165Z,23.97
2019-01-23T14:22:17.659Z,27.50
2019-01-23T14:24:50.166Z,31.00
2019-01-23T14:27:22.923Z,23.93
2019-01-23T14:29:55.496Z,26.77
2019-01-23T14:32:27.945Z,25.53
2019-01-23T14:35:00.454Z,26.03
2019-01-23T14:37:32.775Z,30.07
2019-01-23T14:40:06.247Z,25.00
2019-01-23T14:42:38.512Z,27.70
2019-01-23T14:45:11.401Z,27.20
2019-01-23T14:47:44.092Z,26.30
2019-01-23T14:50:17.430Z,95.90
2019-01-23T14:52:50.232Z,28.33
2019-01-23T14:55:23.104Z,25.33
2019-01-23T14:57:55.532Z,26.77
2019-01-23T15:00:29.120Z,28.23
2019-01-23T15:03:01.674Z,31.17
2019-01-23T15:05:34.649Z,26.77
2019-01-23T15:08:07.289Z,25.93
2019-01-23T15:10:39.621Z,32.30
2019-01-23T15:13:12.299Z,29.70
2019-01-23T15:15:45.332Z,29.53
2019-01-23T15:18:17.979Z,33.83
2019-01-23T15:20:50.388Z,29.17
2019-01-23T15:23:22.967Z,34.30
2019-01-23T15:25:55.474Z,28.47
2019-01-23T15:28:28.167Z,28.93
2019-01-23T15:31:00.883Z,28.37
2019-01-23T15:33:33.556Z,29.47
2019-01-23T15:36:06.404Z,30.87
2019-01-23T15:38:38.889Z,29.33
2019-01-23T15:41:11.513Z,28.10
2019-01-23T15:43:44.137Z,29.03
2019-01-23T15:46:16.584Z,31.77
2019-01-23T15:48:49.112Z,30.20
2019-01-23T15:51:21.552Z,29.60
2019-01-23T15:53:54.279Z,29.10
2019-01-23T15:56:26.911Z,42.57
2019-01-23T15:58:59.284Z,30.40
2019-01-23T16:01:31.749Z,50.43
2019-01-23T16:04:04.216Z,30.93
2019-01-23T16:06:36.957Z,32.27
2019-01-23T16:09:09.992Z,28.00
2019-01-23T16:11:42.570Z,34.43
2019-01-23T16:14:15.270Z,38.73
2019-01-23T16:16:47.842Z,30.03
2019-01-23T16:19:20.564Z,52.03
2019-01-23T16:21:52.884Z,33.33
2019-01-23T16:24:25.390Z,32.13
2019-01-23T16:26:57.735Z,31.63
2019-01-23T16:29:30.141Z,28.23
2019-01-23T16:32:03.330Z,27.40
2019-01-23T16:34:35.879Z,28.00
2019-01-23T16:37:08.534Z,29.10
2019-01-23T16:39:41.370Z,28.07
2019-01-23T16:42:13.997Z,34.67
2019-01-23T16:44:46.462Z,31.03
2019-01-23T16:47:19.169Z,28.47
2019-01-23T16:49:52.081Z,28.40
2019-01-23T16:52:25.302Z,29.40
2019-01-23T16:54:57.633Z,29.03
2019-01-23T16:57:30.191Z,25.80
2019-01-23T17:00:02.500Z,28.00
2019-01-23T17:02:38.810Z,25.27
2019-01-23T17:05:13.693Z,28.53
2019-01-23T17:07:47.704Z,28.00
2019-01-23T17:10:22.598Z,32.20
2019-01-23T17:12:55.186Z,25.43
2019-01-23T17:15:27.527Z,28.23
2019-01-23T17:17:59.954Z,27.90
2019-01-23T17:20:48.405Z,41.77
2019-01-23T17:23:21.192Z,26.70
2019-01-23T17:25:53.741Z,60.33
2019-01-23T17:28:26.655Z,28.37
2019-01-23T17:30:59.190Z,29.90
2019-01-23T17:33:31.854Z,29.60
2019-01-23T17:36:04.367Z,27.50
2019-01-23T17:38:37.046Z,24.10
2019-01-23T17:41:09.611Z,27.93
2019-01-23T17:43:42.278Z,23.00
2019-01-23T17:46:14.788Z,28.27
2019-01-23T17:48:47.337Z,24.83
2019-01-23T17:51:20.101Z,102.57
2019-01-23T17:53:52.959Z,33.03
2019-01-23T17:56:25.419Z,25.70
2019-01-23T17:58:58.233Z,27.20
2019-01-23T18:01:30.905Z,25.77
2019-01-23T18:04:03.431Z,27.03
2019-01-23T18:06:36.004Z,29.97
2019-01-23T18:09:11.443Z,30.07
2019-01-23T18:11:44.109Z,31.47
2019-01-23T18:14:16.851Z,27.90
2019-01-23T18:16:49.432Z,39.97
2019-01-23T18:19:22.049Z,38.47
2019-01-23T18:21:54.434Z,30.20
2019-01-23T18:24:27.170Z,26.23
2019-01-23T18:26:59.735Z,29.13
2019-01-23T18:29:32.395Z,27.70
2019-01-23T18:32:10.562Z,31.50
2019-01-23T18:35:35.150Z,30.30
2019-01-23T18:39:01.023Z,37.13
2019-01-23T18:42:06.906Z,30.77
2019-01-23T18:45:25.038Z,29.40
2019-01-23T18:48:47.084Z,28.70
2019-01-23T18:51:47.386Z,32.77
2019-01-23T18:54:19.912Z,30.87
2019-01-23T18:56:52.720Z,34.63
2019-01-23T18:59:25.223Z,32.90
2019-01-23T19:01:58.100Z,32.93
2019-01-23T19:04:30.980Z,34.23
2019-01-23T19:07:03.287Z,35.30
2019-01-23T19:09:35.714Z,35.40
2019-01-23T19:12:09.040Z,32.93
2019-01-23T19:14:41.393Z,35.67
2019-01-23T19:17:14.015Z,35.93
2019-01-23T19:19:46.638Z,33.93
2019-01-23T19:22:19.202Z,31.43
2019-01-23T19:24:51.762Z,32.13
2019-01-23T19:27:24.882Z,34.00
2019-01-23T19:29:57.560Z,35.67
2019-01-23T19:32:30.081Z,33.63
2019-01-23T19:35:02.565Z,42.90
2019-01-23T19:37:35.117Z,35.20
2019-01-23T19:40:09.611Z,33.70
2019-01-23T19:42:42.083Z,35.67
2019-01-23T19:45:19.128Z,35.27
2019-01-23T19:47:52.025Z,40.47
2019-01-23T19:50:24.717Z,36.67
2019-01-23T19:52:57.081Z,33.47
2019-01-23T19:55:32.688Z,70.63
2019-01-23T19:58:05.190Z,40.37
2019-01-23T20:00:37.938Z,41.23
2019-01-23T20:03:10.605Z,45.53
2019-01-23T20:05:43.356Z,46.23
2019-01-23T20:08:16.177Z,41.07
2019-01-23T20:10:48.682Z,54.13
2019-01-23T20:13:21.395Z,66.00
2019-01-23T20:15:54.277Z,44.97
2019-01-23T20:18:27.022Z,63.93
2019-01-23T20:21:00.772Z,63.67
2019-01-23T20:23:33.346Z,44.80
2019-01-23T20:26:06.232Z,43.23
2019-01-23T20:28:39.007Z,79.53
2019-01-23T20:31:11.833Z,54.67
2019-01-23T20:33:44.414Z,46.17
2019-01-23T20:36:17.259Z,46.20
2019-01-23T20:38:50.068Z,48.67
2019-01-23T20:41:23.597Z,51.67
2019-01-23T20:43:56.099Z,54.37
2019-01-23T20:46:30.081Z,50.73
2019-01-23T20:49:02.551Z,54.20
2019-01-23T20:51:35.161Z,56.00
2019-01-23T20:54:08.422Z,47.87
2019-01-23T20:56:42.719Z,49.37
2019-01-23T20:59:15.151Z,53.40
2019-01-23T21:01:48.596Z,55.43
2019-01-23T21:04:21.396Z,54.90
2019-01-23T21:06:54.191Z,56.47
2019-01-23T21:09:26.646Z,51.57
2019-01-23T21:11:59.109Z,48.67
2019-01-23T21:14:31.755Z,44.90
2019-01-23T21:17:04.468Z,47.37
2019-01-23T21:19:36.925Z,56.93
2019-01-23T21:22:11.022Z,59.30
2019-01-23T21:24:43.817Z,50.73
2019-01-23T21:27:17.879Z,78.90
2019-01-23T21:29:50.174Z,57.27
2019-01-23T21:32:23.821Z,55.90
2019-01-23T21:34:56.329Z,52.43
2019-01-23T21:37:29.754Z,54.47
2019-01-23T21:40:02.394Z,57.37
2019-01-23T21:42:34.937Z,50.40
2019-01-23T21:45:09.470Z,49.33
2019-01-23T21:47:42.276Z,51.00
2019-01-23T21:50:17.882Z,70.00
2019-01-23T21:52:50.469Z,49.80
2019-01-23T21:55:24.545Z,48.07
2019-01-23T21:57:57.298Z,48.57
2019-01-23T22:00:45.472Z,46.27
2019-01-23T22:03:18.168Z,45.70
2019-01-23T22:05:50.806Z,48.23
2019-01-23T22:08:23.315Z,51.03
2019-01-23T22:10:55.855Z,46.70
2019-01-23T22:13:28.619Z,47.40
2019-01-23T22:16:01.148Z,47.77
2019-01-23T22:18:34.087Z,46.30
2019-01-23T22:21:06.722Z,50.20
2019-01-23T22:23:39.481Z,48.60
2019-01-23T22:26:12.531Z,44.43
2019-01-23T22:28:45.072Z,50.13
2019-01-23T22:31:17.763Z,44.43
2019-01-23T22:33:56.132Z,44.37
2019-01-23T22:36:25.549Z,48.93
2019-01-23T22:38:57.942Z,43.90
2019-01-23T22:41:30.461Z,45.47
2019-01-23T22:44:03.089Z,47.20
2019-01-23T22:46:37.077Z,45.60
2019-01-23T22:49:09.388Z,45.10
2019-01-23T22:51:42.300Z,47.00
2019-01-23T22:54:14.947Z,42.87
2019-01-23T22:56:47.433Z,49.43
2019-01-23T22:59:20.073Z,46.00
2019-01-23T23:01:52.600Z,40.27
2019-01-23T23:04:43.919Z,46.90
2019-01-23T23:07:16.410Z,40.13
2019-01-23T23:09:48.881Z,44.13
2019-01-23T23:12:21.630Z,38.57
2019-01-23T23:14:54.029Z,44.43
2019-01-23T23:17:26.716Z,41.83
2019-01-23T23:19:59.455Z,41.77
2019-01-23T23:22:32.146Z,46.17
2019-01-23T23:25:05.045Z,36.67
2019-01-23T23:27:39.501Z,42.70
2019-01-23T23:30:14.030Z,48.97
2019-01-23T23:32:46.446Z,43.93
2019-01-23T23:35:19.157Z,44.50
2019-01-23T23:37:51.462Z,42.20
2019-01-23T23:40:24.032Z,39.77
2019-01-23T23:42:56.807Z,46.20
2019-01-23T23:45:29.206Z,43.50
2019-01-23T23:48:01.803Z,43.57
2019-01-23T23:50:34.439Z,39.90
2019-01-23T23:53:07.158Z,42.67
2019-01-23T23:55:39.666Z,45.87
2019-01-23T23:58:12.274Z,48.83
